sensor_id;sensor_type;location;lat;lon;timestamp;temperature;humidity
81202;DHT22;70675;47.650;-2.782;2023-06-14T00:01:43;20.00;73.80
81202;DHT22;70675;47.650;-2.782;2023-06-14T00:04:11;19.90;73.60
81202;DHT22;70675;47.650;-2.782;2023-06-14T00:06:37;19.90;73.80
81202;DHT22;70675;47.650;-2.782;2023-06-14T00:09:03;19.90;73.70
81202;DHT22;70675;47.650;-2.782;2023-06-14T00:11:33;19.80;73.80
81202;DHT22;70675;47.650;-2.782;2023-06-14T00:13:59;19.70;73.80
81202;DHT22;70675;47.650;-2.782;2023-06-14T00:16:24;19.70;74.00
81202;DHT22;70675;47.650;-2.782;2023-06-14T00:18:50;19.70;74.10
81202;DHT22;70675;47.650;-2.782;2023-06-14T00:21:17;19.70;74.10
81202;DHT22;70675;47.650;-2.782;2023-06-14T00:23:43;19.70;74.30
81202;DHT22;70675;47.650;-2.782;2023-06-14T00:26:09;19.60;74.20
81202;DHT22;70675;47.650;-2.782;2023-06-14T00:28:34;19.60;74.50
81202;DHT22;70675;47.650;-2.782;2023-06-14T00:31:00;19.60;74.60
81202;DHT22;70675;47.650;-2.782;2023-06-14T00:33:25;19.50;74.90
81202;DHT22;70675;47.650;-2.782;2023-06-14T00:35:51;19.50;74.80
81202;DHT22;70675;47.650;-2.782;2023-06-14T00:38:19;19.50;74.90
81202;DHT22;70675;47.650;-2.782;2023-06-14T00:40:45;19.50;75.20
81202;DHT22;70675;47.650;-2.782;2023-06-14T00:43:11;19.40;75.20
81202;DHT22;70675;47.650;-2.782;2023-06-14T00:45:36;19.30;75.80
81202;DHT22;70675;47.650;-2.782;2023-06-14T00:48:03;19.50;75.70
81202;DHT22;70675;47.650;-2.782;2023-06-14T00:50:31;19.40;75.80
81202;DHT22;70675;47.650;-2.782;2023-06-14T00:52:59;19.40;76.20
81202;DHT22;70675;47.650;-2.782;2023-06-14T00:55:25;19.30;76.50
81202;DHT22;70675;47.650;-2.782;2023-06-14T00:57:51;19.30;76.50
81202;DHT22;70675;47.650;-2.782;2023-06-14T01:00:17;19.30;76.70
81202;DHT22;70675;47.650;-2.782;2023-06-14T01:02:42;19.20;76.90
81202;DHT22;70675;47.650;-2.782;2023-06-14T01:05:08;19.20;77.20
81202;DHT22;70675;47.650;-2.782;2023-06-14T01:08:11;19.20;77.30
81202;DHT22;70675;47.650;-2.782;2023-06-14T01:10:53;19.20;77.50
81202;DHT22;70675;47.650;-2.782;2023-06-14T01:15:50;19.10;77.80
81202;DHT22;70675;47.650;-2.782;2023-06-14T01:18:17;19.00;77.70
81202;DHT22;70675;47.650;-2.782;2023-06-14T01:20:44;19.00;77.70
81202;DHT22;70675;47.650;-2.782;2023-06-14T01:23:11;19.00;77.90
81202;DHT22;70675;47.650;-2.782;2023-06-14T01:25:39;18.90;78.00
81202;DHT22;70675;47.650;-2.782;2023-06-14T01:28:06;18.80;78.20
81202;DHT22;70675;47.650;-2.782;2023-06-14T01:30:37;18.80;78.60
81202;DHT22;70675;47.650;-2.782;2023-06-14T01:33:04;18.90;78.50
81202;DHT22;70675;47.650;-2.782;2023-06-14T01:35:31;18.80;79.30
81202;DHT22;70675;47.650;-2.782;2023-06-14T01:37:57;18.70;79.40
81202;DHT22;70675;47.650;-2.782;2023-06-14T01:40:24;18.70;79.40
81202;DHT22;70675;47.650;-2.782;2023-06-14T01:42:50;18.80;79.60
81202;DHT22;70675;47.650;-2.782;2023-06-14T01:45:17;18.70;79.80
81202;DHT22;70675;47.650;-2.782;2023-06-14T01:47:44;18.60;80.00
81202;DHT22;70675;47.650;-2.782;2023-06-14T01:50:11;18.60;80.10
81202;DHT22;70675;47.650;-2.782;2023-06-14T01:52:39;18.60;79.90
81202;DHT22;70675;47.650;-2.782;2023-06-14T01:55:05;18.50;80.20
81202;DHT22;70675;47.650;-2.782;2023-06-14T01:57:31;18.50;80.40
81202;DHT22;70675;47.650;-2.782;2023-06-14T01:59:57;18.50;80.50
81202;DHT22;70675;47.650;-2.782;2023-06-14T02:02:23;18.40;80.50
81202;DHT22;70675;47.650;-2.782;2023-06-14T02:04:48;18.50;80.60
81202;DHT22;70675;47.650;-2.782;2023-06-14T02:07:14;18.40;80.50
81202;DHT22;70675;47.650;-2.782;2023-06-14T02:09:41;18.30;80.70
81202;DHT22;70675;47.650;-2.782;2023-06-14T02:12:07;18.30;80.70
81202;DHT22;70675;47.650;-2.782;2023-06-14T02:14:33;18.30;81.00
81202;DHT22;70675;47.650;-2.782;2023-06-14T02:16:59;18.40;80.90
81202;DHT22;70675;47.650;-2.782;2023-06-14T02:19:26;18.30;80.90
81202;DHT22;70675;47.650;-2.782;2023-06-14T02:21:52;18.30;80.90
81202;DHT22;70675;47.650;-2.782;2023-06-14T02:24:18;18.30;81.00
81202;DHT22;70675;47.650;-2.782;2023-06-14T02:26:44;18.20;81.10
81202;DHT22;70675;47.650;-2.782;2023-06-14T02:29:09;18.20;81.10
81202;DHT22;70675;47.650;-2.782;2023-06-14T02:31:37;18.20;81.10
81202;DHT22;70675;47.650;-2.782;2023-06-14T02:34:03;18.20;81.20
81202;DHT22;70675;47.650;-2.782;2023-06-14T02:36:29;18.20;81.30
81202;DHT22;70675;47.650;-2.782;2023-06-14T02:38:57;18.20;81.30
81202;DHT22;70675;47.650;-2.782;2023-06-14T02:41:24;18.10;81.40
81202;DHT22;70675;47.650;-2.782;2023-06-14T02:43:51;18.10;81.40
81202;DHT22;70675;47.650;-2.782;2023-06-14T02:46:17;18.10;81.30
81202;DHT22;70675;47.650;-2.782;2023-06-14T02:48:43;18.10;81.60
81202;DHT22;70675;47.650;-2.782;2023-06-14T02:51:09;18.10;81.40
81202;DHT22;70675;47.650;-2.782;2023-06-14T02:53:35;18.20;81.30
81202;DHT22;70675;47.650;-2.782;2023-06-14T02:56:02;18.10;81.40
81202;DHT22;70675;47.650;-2.782;2023-06-14T02:58:29;18.10;81.20
81202;DHT22;70675;47.650;-2.782;2023-06-14T03:00:55;18.10;81.30
81202;DHT22;70675;47.650;-2.782;2023-06-14T03:03:21;18.00;81.30
81202;DHT22;70675;47.650;-2.782;2023-06-14T03:05:50;18.00;81.30
81202;DHT22;70675;47.650;-2.782;2023-06-14T03:08:16;18.00;81.20
81202;DHT22;70675;47.650;-2.782;2023-06-14T03:10:48;18.00;81.10
81202;DHT22;70675;47.650;-2.782;2023-06-14T03:13:15;18.10;81.10
81202;DHT22;70675;47.650;-2.782;2023-06-14T03:15:44;18.00;81.20
81202;DHT22;70675;47.650;-2.782;2023-06-14T03:18:10;18.00;81.20
81202;DHT22;70675;47.650;-2.782;2023-06-14T03:20:37;18.00;81.10
81202;DHT22;70675;47.650;-2.782;2023-06-14T03:23:03;17.90;81.20
81202;DHT22;70675;47.650;-2.782;2023-06-14T03:25:31;18.00;81.20
81202;DHT22;70675;47.650;-2.782;2023-06-14T03:27:58;17.90;81.20
81202;DHT22;70675;47.650;-2.782;2023-06-14T03:30:24;18.00;81.10
81202;DHT22;70675;47.650;-2.782;2023-06-14T03:32:49;17.90;81.20
81202;DHT22;70675;47.650;-2.782;2023-06-14T03:35:18;17.90;81.20
81202;DHT22;70675;47.650;-2.782;2023-06-14T03:37:45;17.90;81.10
81202;DHT22;70675;47.650;-2.782;2023-06-14T03:40:12;17.90;81.20
81202;DHT22;70675;47.650;-2.782;2023-06-14T03:42:39;17.90;81.10
81202;DHT22;70675;47.650;-2.782;2023-06-14T03:45:05;17.80;81.20
81202;DHT22;70675;47.650;-2.782;2023-06-14T03:47:31;17.80;81.10
81202;DHT22;70675;47.650;-2.782;2023-06-14T03:49:57;17.80;81.10
81202;DHT22;70675;47.650;-2.782;2023-06-14T03:52:23;18.00;81.10
81202;DHT22;70675;47.650;-2.782;2023-06-14T03:54:49;17.90;81.20
81202;DHT22;70675;47.650;-2.782;2023-06-14T03:57:15;17.80;81.00
81202;DHT22;70675;47.650;-2.782;2023-06-14T03:59:41;17.90;81.00
81202;DHT22;70675;47.650;-2.782;2023-06-14T04:02:07;17.80;81.00
81202;DHT22;70675;47.650;-2.782;2023-06-14T04:04:35;17.80;81.00
81202;DHT22;70675;47.650;-2.782;2023-06-14T04:07:01;17.80;80.90
81202;DHT22;70675;47.650;-2.782;2023-06-14T04:09:29;17.80;81.10
81202;DHT22;70675;47.650;-2.782;2023-06-14T04:11:55;17.80;81.00
81202;DHT22;70675;47.650;-2.782;2023-06-14T04:14:21;17.80;81.30
81202;DHT22;70675;47.650;-2.782;2023-06-14T04:16:48;17.80;81.10
81202;DHT22;70675;47.650;-2.782;2023-06-14T04:19:15;17.80;81.10
81202;DHT22;70675;47.650;-2.782;2023-06-14T04:21:41;17.80;81.10
81202;DHT22;70675;47.650;-2.782;2023-06-14T04:24:07;17.70;81.30
81202;DHT22;70675;47.650;-2.782;2023-06-14T04:26:39;17.80;81.20
81202;DHT22;70675;47.650;-2.782;2023-06-14T04:29:05;17.70;81.10
81202;DHT22;70675;47.650;-2.782;2023-06-14T04:31:32;17.70;81.20
81202;DHT22;70675;47.650;-2.782;2023-06-14T04:34:03;17.70;81.10
81202;DHT22;70675;47.650;-2.782;2023-06-14T04:36:32;17.80;81.20
81202;DHT22;70675;47.650;-2.782;2023-06-14T04:39:00;17.70;81.20
81202;DHT22;70675;47.650;-2.782;2023-06-14T04:41:32;17.70;81.20
81202;DHT22;70675;47.650;-2.782;2023-06-14T04:43:58;17.70;81.20
81202;DHT22;70675;47.650;-2.782;2023-06-14T04:46:27;17.80;81.00
81202;DHT22;70675;47.650;-2.782;2023-06-14T04:48:53;17.80;81.10
81202;DHT22;70675;47.650;-2.782;2023-06-14T04:51:20;17.90;81.00
81202;DHT22;70675;47.650;-2.782;2023-06-14T04:53:48;17.80;81.00
81202;DHT22;70675;47.650;-2.782;2023-06-14T04:56:15;17.70;81.10
81202;DHT22;70675;47.650;-2.782;2023-06-14T04:58:42;17.80;81.00
81202;DHT22;70675;47.650;-2.782;2023-06-14T05:01:09;17.70;81.20
81202;DHT22;70675;47.650;-2.782;2023-06-14T05:03:34;17.90;81.10
81202;DHT22;70675;47.650;-2.782;2023-06-14T05:06:00;17.80;81.20
81202;DHT22;70675;47.650;-2.782;2023-06-14T05:08:26;17.90;80.90
81202;DHT22;70675;47.650;-2.782;2023-06-14T05:10:52;18.00;80.90
81202;DHT22;70675;47.650;-2.782;2023-06-14T05:13:18;17.90;80.80
81202;DHT22;70675;47.650;-2.782;2023-06-14T05:15:44;18.00;80.80
81202;DHT22;70675;47.650;-2.782;2023-06-14T05:18:10;17.90;80.70
81202;DHT22;70675;47.650;-2.782;2023-06-14T05:20:36;18.00;80.70
81202;DHT22;70675;47.650;-2.782;2023-06-14T05:23:02;18.00;80.60
81202;DHT22;70675;47.650;-2.782;2023-06-14T05:25:28;18.00;80.60
81202;DHT22;70675;47.650;-2.782;2023-06-14T05:27:54;18.00;80.70
81202;DHT22;70675;47.650;-2.782;2023-06-14T05:30:20;18.10;80.60
81202;DHT22;70675;47.650;-2.782;2023-06-14T05:32:46;18.20;80.40
81202;DHT22;70675;47.650;-2.782;2023-06-14T05:35:11;18.20;80.60
81202;DHT22;70675;47.650;-2.782;2023-06-14T05:37:37;18.20;80.60
81202;DHT22;70675;47.650;-2.782;2023-06-14T05:40:04;18.10;80.80
81202;DHT22;70675;47.650;-2.782;2023-06-14T05:42:31;18.30;80.60
81202;DHT22;70675;47.650;-2.782;2023-06-14T05:44:57;18.20;80.40
81202;DHT22;70675;47.650;-2.782;2023-06-14T05:47:23;18.30;80.60
81202;DHT22;70675;47.650;-2.782;2023-06-14T05:49:48;18.30;80.40
81202;DHT22;70675;47.650;-2.782;2023-06-14T05:52:14;18.40;80.10
81202;DHT22;70675;47.650;-2.782;2023-06-14T05:54:40;18.50;80.80
81202;DHT22;70675;47.650;-2.782;2023-06-14T05:57:06;18.50;80.70
81202;DHT22;70675;47.650;-2.782;2023-06-14T05:59:34;18.60;80.70
81202;DHT22;70675;47.650;-2.782;2023-06-14T06:01:59;18.70;80.50
81202;DHT22;70675;47.650;-2.782;2023-06-14T06:04:25;18.70;80.30
81202;DHT22;70675;47.650;-2.782;2023-06-14T06:06:51;18.80;80.10
81202;DHT22;70675;47.650;-2.782;2023-06-14T06:09:16;18.80;80.00
81202;DHT22;70675;47.650;-2.782;2023-06-14T06:11:42;18.80;80.10
81202;DHT22;70675;47.650;-2.782;2023-06-14T06:14:08;18.90;80.10
81202;DHT22;70675;47.650;-2.782;2023-06-14T06:16:33;18.90;79.90
81202;DHT22;70675;47.650;-2.782;2023-06-14T06:18:59;19.00;79.70
81202;DHT22;70675;47.650;-2.782;2023-06-14T06:21:25;19.10;79.90
81202;DHT22;70675;47.650;-2.782;2023-06-14T06:23:50;19.00;79.40
81202;DHT22;70675;47.650;-2.782;2023-06-14T06:26:16;19.10;79.30
81202;DHT22;70675;47.650;-2.782;2023-06-14T06:28:42;19.10;79.40
81202;DHT22;70675;47.650;-2.782;2023-06-14T06:31:07;19.20;79.40
81202;DHT22;70675;47.650;-2.782;2023-06-14T06:33:33;19.20;78.70
81202;DHT22;70675;47.650;-2.782;2023-06-14T06:35:58;19.30;78.80
81202;DHT22;70675;47.650;-2.782;2023-06-14T06:38:24;19.40;78.60
81202;DHT22;70675;47.650;-2.782;2023-06-14T06:40:50;19.50;78.70
81202;DHT22;70675;47.650;-2.782;2023-06-14T06:43:16;19.50;78.40
81202;DHT22;70675;47.650;-2.782;2023-06-14T06:45:43;19.60;78.20
81202;DHT22;70675;47.650;-2.782;2023-06-14T06:48:09;19.60;78.00
81202;DHT22;70675;47.650;-2.782;2023-06-14T06:50:37;19.50;78.10
81202;DHT22;70675;47.650;-2.782;2023-06-14T06:53:03;19.60;77.80
81202;DHT22;70675;47.650;-2.782;2023-06-14T06:55:30;19.60;77.80
81202;DHT22;70675;47.650;-2.782;2023-06-14T06:57:55;19.70;77.70
81202;DHT22;70675;47.650;-2.782;2023-06-14T07:00:21;19.70;77.50
81202;DHT22;70675;47.650;-2.782;2023-06-14T07:02:47;19.80;77.20
81202;DHT22;70675;47.650;-2.782;2023-06-14T07:05:13;19.90;76.80
81202;DHT22;70675;47.650;-2.782;2023-06-14T07:07:38;20.10;76.80
81202;DHT22;70675;47.650;-2.782;2023-06-14T07:10:04;20.10;76.50
81202;DHT22;70675;47.650;-2.782;2023-06-14T07:12:34;20.10;76.30
81202;DHT22;70675;47.650;-2.782;2023-06-14T07:15:07;20.30;76.10
81202;DHT22;70675;47.650;-2.782;2023-06-14T07:17:34;20.30;76.20
81202;DHT22;70675;47.650;-2.782;2023-06-14T07:20:00;20.30;75.70
81202;DHT22;70675;47.650;-2.782;2023-06-14T07:22:30;20.40;75.50
81202;DHT22;70675;47.650;-2.782;2023-06-14T07:24:56;20.40;75.30
81202;DHT22;70675;47.650;-2.782;2023-06-14T07:27:22;20.50;75.30
81202;DHT22;70675;47.650;-2.782;2023-06-14T07:29:47;20.50;75.40
81202;DHT22;70675;47.650;-2.782;2023-06-14T07:32:13;20.60;75.30
81202;DHT22;70675;47.650;-2.782;2023-06-14T07:34:39;20.60;75.40
81202;DHT22;70675;47.650;-2.782;2023-06-14T07:37:05;20.80;75.30
81202;DHT22;70675;47.650;-2.782;2023-06-14T07:39:30;20.80;75.00
81202;DHT22;70675;47.650;-2.782;2023-06-14T07:41:56;20.80;74.60
81202;DHT22;70675;47.650;-2.782;2023-06-14T07:44:22;21.00;74.60
81202;DHT22;70675;47.650;-2.782;2023-06-14T07:46:47;21.00;74.30
81202;DHT22;70675;47.650;-2.782;2023-06-14T07:49:14;21.10;74.50
81202;DHT22;70675;47.650;-2.782;2023-06-14T07:51:41;21.10;74.70
81202;DHT22;70675;47.650;-2.782;2023-06-14T07:54:06;21.10;74.50
81202;DHT22;70675;47.650;-2.782;2023-06-14T07:56:34;21.20;74.50
81202;DHT22;70675;47.650;-2.782;2023-06-14T07:59:01;21.20;74.50
81202;DHT22;70675;47.650;-2.782;2023-06-14T08:01:26;21.30;74.30
81202;DHT22;70675;47.650;-2.782;2023-06-14T08:03:53;21.40;74.20
81202;DHT22;70675;47.650;-2.782;2023-06-14T08:06:19;21.40;74.20
81202;DHT22;70675;47.650;-2.782;2023-06-14T08:08:44;21.40;74.30
81202;DHT22;70675;47.650;-2.782;2023-06-14T08:11:10;21.40;74.10
81202;DHT22;70675;47.650;-2.782;2023-06-14T08:13:35;21.40;74.00
81202;DHT22;70675;47.650;-2.782;2023-06-14T08:16:01;21.50;74.50
81202;DHT22;70675;47.650;-2.782;2023-06-14T08:18:30;21.60;74.80
81202;DHT22;70675;47.650;-2.782;2023-06-14T08:20:55;21.60;74.60
81202;DHT22;70675;47.650;-2.782;2023-06-14T08:23:23;21.70;74.50
81202;DHT22;70675;47.650;-2.782;2023-06-14T08:25:48;21.80;74.40
81202;DHT22;70675;47.650;-2.782;2023-06-14T08:28:14;21.80;74.80
81202;DHT22;70675;47.650;-2.782;2023-06-14T08:30:42;21.80;74.30
81202;DHT22;70675;47.650;-2.782;2023-06-14T08:33:08;21.90;74.20
81202;DHT22;70675;47.650;-2.782;2023-06-14T08:35:33;22.00;74.20
81202;DHT22;70675;47.650;-2.782;2023-06-14T08:38:02;22.00;74.10
81202;DHT22;70675;47.650;-2.782;2023-06-14T08:40:30;22.10;74.40
81202;DHT22;70675;47.650;-2.782;2023-06-14T08:42:56;22.10;73.80
81202;DHT22;70675;47.650;-2.782;2023-06-14T08:45:23;22.30;74.10
81202;DHT22;70675;47.650;-2.782;2023-06-14T08:47:50;22.30;73.50
81202;DHT22;70675;47.650;-2.782;2023-06-14T08:50:20;22.30;72.90
81202;DHT22;70675;47.650;-2.782;2023-06-14T08:52:48;22.40;72.90
81202;DHT22;70675;47.650;-2.782;2023-06-14T08:55:18;22.50;72.70
81202;DHT22;70675;47.650;-2.782;2023-06-14T08:57:46;22.60;72.50
81202;DHT22;70675;47.650;-2.782;2023-06-14T09:00:13;22.60;71.90
81202;DHT22;70675;47.650;-2.782;2023-06-14T09:02:40;22.60;71.60
81202;DHT22;70675;47.650;-2.782;2023-06-14T09:05:15;22.80;72.00
81202;DHT22;70675;47.650;-2.782;2023-06-14T09:07:44;22.80;71.00
81202;DHT22;70675;47.650;-2.782;2023-06-14T09:10:11;22.90;70.80
81202;DHT22;70675;47.650;-2.782;2023-06-14T09:12:37;22.90;71.50
81202;DHT22;70675;47.650;-2.782;2023-06-14T09:15:05;22.90;71.90
81202;DHT22;70675;47.650;-2.782;2023-06-14T09:17:49;23.00;71.50
81202;DHT22;70675;47.650;-2.782;2023-06-14T09:20:15;23.00;70.90
81202;DHT22;70675;47.650;-2.782;2023-06-14T09:22:44;23.20;70.40
81202;DHT22;70675;47.650;-2.782;2023-06-14T09:25:10;23.30;70.90
81202;DHT22;70675;47.650;-2.782;2023-06-14T09:27:37;23.30;71.50
81202;DHT22;70675;47.650;-2.782;2023-06-14T09:30:08;23.30;71.30
81202;DHT22;70675;47.650;-2.782;2023-06-14T09:32:38;23.30;71.30
81202;DHT22;70675;47.650;-2.782;2023-06-14T09:35:07;23.40;70.50
81202;DHT22;70675;47.650;-2.782;2023-06-14T09:37:33;23.50;69.80
81202;DHT22;70675;47.650;-2.782;2023-06-14T09:40:00;23.60;69.70
81202;DHT22;70675;47.650;-2.782;2023-06-14T09:42:26;23.60;69.70
81202;DHT22;70675;47.650;-2.782;2023-06-14T09:44:54;23.60;69.50
81202;DHT22;70675;47.650;-2.782;2023-06-14T09:47:20;23.70;68.70
81202;DHT22;70675;47.650;-2.782;2023-06-14T09:49:47;23.70;67.80
81202;DHT22;70675;47.650;-2.782;2023-06-14T09:52:17;23.80;68.20
81202;DHT22;70675;47.650;-2.782;2023-06-14T09:54:45;23.90;69.30
81202;DHT22;70675;47.650;-2.782;2023-06-14T09:57:21;23.90;68.10
81202;DHT22;70675;47.650;-2.782;2023-06-14T09:59:48;24.00;67.30
81202;DHT22;70675;47.650;-2.782;2023-06-14T10:05:04;24.10;67.40
81202;DHT22;70675;47.650;-2.782;2023-06-14T10:07:53;24.10;67.90
81202;DHT22;70675;47.650;-2.782;2023-06-14T10:10:19;24.20;65.90
81202;DHT22;70675;47.650;-2.782;2023-06-14T10:12:45;24.10;67.10
81202;DHT22;70675;47.650;-2.782;2023-06-14T10:15:18;24.20;67.00
81202;DHT22;70675;47.650;-2.782;2023-06-14T10:18:02;24.30;67.20
81202;DHT22;70675;47.650;-2.782;2023-06-14T10:20:41;24.30;66.30
81202;DHT22;70675;47.650;-2.782;2023-06-14T10:23:17;24.40;66.80
81202;DHT22;70675;47.650;-2.782;2023-06-14T10:25:44;24.40;66.70
81202;DHT22;70675;47.650;-2.782;2023-06-14T10:28:17;24.50;66.40
81202;DHT22;70675;47.650;-2.782;2023-06-14T10:31:03;24.50;66.40
81202;DHT22;70675;47.650;-2.782;2023-06-14T10:33:33;24.60;67.20
81202;DHT22;70675;47.650;-2.782;2023-06-14T10:36:30;24.60;67.20
81202;DHT22;70675;47.650;-2.782;2023-06-14T10:39:17;24.60;67.80
81202;DHT22;70675;47.650;-2.782;2023-06-14T10:41:53;24.60;68.40
81202;DHT22;70675;47.650;-2.782;2023-06-14T10:46:49;24.70;66.60
81202;DHT22;70675;47.650;-2.782;2023-06-14T10:49:19;24.80;66.00
81202;DHT22;70675;47.650;-2.782;2023-06-14T10:51:49;24.80;66.20
81202;DHT22;70675;47.650;-2.782;2023-06-14T10:54:21;24.90;66.70
81202;DHT22;70675;47.650;-2.782;2023-06-14T10:56:51;24.90;67.40
81202;DHT22;70675;47.650;-2.782;2023-06-14T10:59:18;25.00;66.10
81202;DHT22;70675;47.650;-2.782;2023-06-14T11:02:22;25.00;66.20
81202;DHT22;70675;47.650;-2.782;2023-06-14T11:04:48;25.10;66.00
81202;DHT22;70675;47.650;-2.782;2023-06-14T11:09:51;25.20;66.50
81202;DHT22;70675;47.650;-2.782;2023-06-14T11:12:23;25.30;66.80
81202;DHT22;70675;47.650;-2.782;2023-06-14T11:14:50;25.20;67.20
81202;DHT22;70675;47.650;-2.782;2023-06-14T11:17:16;25.20;67.30
81202;DHT22;70675;47.650;-2.782;2023-06-14T11:19:41;25.20;67.30
81202;DHT22;70675;47.650;-2.782;2023-06-14T11:22:07;25.20;67.50
81202;DHT22;70675;47.650;-2.782;2023-06-14T11:24:33;25.20;67.70
81202;DHT22;70675;47.650;-2.782;2023-06-14T11:26:58;25.20;67.50
81202;DHT22;70675;47.650;-2.782;2023-06-14T11:29:25;25.20;67.00
81202;DHT22;70675;47.650;-2.782;2023-06-14T11:31:51;25.30;66.90
81202;DHT22;70675;47.650;-2.782;2023-06-14T11:34:17;25.30;67.30
81202;DHT22;70675;47.650;-2.782;2023-06-14T11:36:43;25.30;67.10
81202;DHT22;70675;47.650;-2.782;2023-06-14T11:39:09;25.50;66.90
81202;DHT22;70675;47.650;-2.782;2023-06-14T11:41:44;25.50;67.10
81202;DHT22;70675;47.650;-2.782;2023-06-14T11:44:10;25.50;67.30
81202;DHT22;70675;47.650;-2.782;2023-06-14T11:46:37;25.50;67.40
81202;DHT22;70675;47.650;-2.782;2023-06-14T11:49:03;25.60;67.40
81202;DHT22;70675;47.650;-2.782;2023-06-14T11:51:33;25.60;67.70
81202;DHT22;70675;47.650;-2.782;2023-06-14T11:54:04;25.50;67.80
81202;DHT22;70675;47.650;-2.782;2023-06-14T11:56:31;25.60;67.30
81202;DHT22;70675;47.650;-2.782;2023-06-14T11:58:57;25.60;67.40
81202;DHT22;70675;47.650;-2.782;2023-06-14T12:01:23;25.70;67.40
81202;DHT22;70675;47.650;-2.782;2023-06-14T12:03:50;25.70;67.00
81202;DHT22;70675;47.650;-2.782;2023-06-14T12:06:15;25.70;67.30
81202;DHT22;70675;47.650;-2.782;2023-06-14T12:08:43;25.80;67.30
81202;DHT22;70675;47.650;-2.782;2023-06-14T12:11:12;25.80;67.20
81202;DHT22;70675;47.650;-2.782;2023-06-14T12:13:39;25.80;66.90
81202;DHT22;70675;47.650;-2.782;2023-06-14T12:16:11;25.80;67.00
81202;DHT22;70675;47.650;-2.782;2023-06-14T12:18:39;25.90;66.90
81202;DHT22;70675;47.650;-2.782;2023-06-14T12:21:08;25.90;66.80
81202;DHT22;70675;47.650;-2.782;2023-06-14T12:23:48;25.80;66.30
81202;DHT22;70675;47.650;-2.782;2023-06-14T12:26:19;25.90;66.30
81202;DHT22;70675;47.650;-2.782;2023-06-14T12:28:46;25.90;66.50
81202;DHT22;70675;47.650;-2.782;2023-06-14T12:31:13;26.00;66.20
81202;DHT22;70675;47.650;-2.782;2023-06-14T12:33:40;25.90;65.70
81202;DHT22;70675;47.650;-2.782;2023-06-14T12:36:09;25.90;65.50
81202;DHT22;70675;47.650;-2.782;2023-06-14T12:38:36;26.00;65.80
81202;DHT22;70675;47.650;-2.782;2023-06-14T12:41:02;26.00;65.70
81202;DHT22;70675;47.650;-2.782;2023-06-14T12:43:28;26.00;64.90
81202;DHT22;70675;47.650;-2.782;2023-06-14T12:45:53;26.00;64.80
81202;DHT22;70675;47.650;-2.782;2023-06-14T12:48:20;26.00;64.80
81202;DHT22;70675;47.650;-2.782;2023-06-14T12:50:45;26.00;65.30
81202;DHT22;70675;47.650;-2.782;2023-06-14T12:53:11;26.00;65.30
81202;DHT22;70675;47.650;-2.782;2023-06-14T12:55:37;26.00;65.60
81202;DHT22;70675;47.650;-2.782;2023-06-14T12:58:03;26.00;66.00
81202;DHT22;70675;47.650;-2.782;2023-06-14T13:00:29;26.10;66.10
81202;DHT22;70675;47.650;-2.782;2023-06-14T13:02:57;26.10;66.30
81202;DHT22;70675;47.650;-2.782;2023-06-14T13:05:23;26.00;66.70
81202;DHT22;70675;47.650;-2.782;2023-06-14T13:07:49;26.00;66.80
81202;DHT22;70675;47.650;-2.782;2023-06-14T13:10:16;26.10;67.10
81202;DHT22;70675;47.650;-2.782;2023-06-14T13:12:42;26.10;67.20
81202;DHT22;70675;47.650;-2.782;2023-06-14T13:15:08;26.20;67.40
81202;DHT22;70675;47.650;-2.782;2023-06-14T13:17:35;26.10;67.40
81202;DHT22;70675;47.650;-2.782;2023-06-14T13:20:07;26.20;67.50
81202;DHT22;70675;47.650;-2.782;2023-06-14T13:22:34;26.30;67.70
81202;DHT22;70675;47.650;-2.782;2023-06-14T13:25:01;26.30;67.60
81202;DHT22;70675;47.650;-2.782;2023-06-14T13:27:27;26.40;67.90
81202;DHT22;70675;47.650;-2.782;2023-06-14T13:29:53;26.40;67.80
81202;DHT22;70675;47.650;-2.782;2023-06-14T13:32:21;26.50;68.00
81202;DHT22;70675;47.650;-2.782;2023-06-14T13:34:47;26.50;68.00
81202;DHT22;70675;47.650;-2.782;2023-06-14T13:37:13;26.50;68.10
81202;DHT22;70675;47.650;-2.782;2023-06-14T13:39:39;26.60;67.90
81202;DHT22;70675;47.650;-2.782;2023-06-14T13:42:05;26.60;67.70
81202;DHT22;70675;47.650;-2.782;2023-06-14T13:44:31;26.70;67.60
81202;DHT22;70675;47.650;-2.782;2023-06-14T13:46:56;26.60;67.90
81202;DHT22;70675;47.650;-2.782;2023-06-14T13:49:22;26.70;67.60
81202;DHT22;70675;47.650;-2.782;2023-06-14T13:51:48;26.70;67.70
81202;DHT22;70675;47.650;-2.782;2023-06-14T13:54:13;26.80;67.70
81202;DHT22;70675;47.650;-2.782;2023-06-14T13:56:42;26.90;67.30
81202;DHT22;70675;47.650;-2.782;2023-06-14T13:59:08;26.90;67.30
81202;DHT22;70675;47.650;-2.782;2023-06-14T14:01:34;26.90;67.00
81202;DHT22;70675;47.650;-2.782;2023-06-14T14:04:00;26.90;67.00
81202;DHT22;70675;47.650;-2.782;2023-06-14T14:06:26;26.90;66.80
81202;DHT22;70675;47.650;-2.782;2023-06-14T14:08:52;26.90;66.80
81202;DHT22;70675;47.650;-2.782;2023-06-14T14:11:19;27.00;67.00
81202;DHT22;70675;47.650;-2.782;2023-06-14T14:13:46;27.10;66.90
81202;DHT22;70675;47.650;-2.782;2023-06-14T14:16:12;27.10;66.60
81202;DHT22;70675;47.650;-2.782;2023-06-14T14:18:38;27.20;66.50
81202;DHT22;70675;47.650;-2.782;2023-06-14T14:21:04;27.30;66.30
81202;DHT22;70675;47.650;-2.782;2023-06-14T14:23:30;27.30;66.20
81202;DHT22;70675;47.650;-2.782;2023-06-14T14:25:56;27.40;66.10
81202;DHT22;70675;47.650;-2.782;2023-06-14T14:28:24;27.60;65.70
81202;DHT22;70675;47.650;-2.782;2023-06-14T14:30:50;27.60;65.70
81202;DHT22;70675;47.650;-2.782;2023-06-14T14:33:16;27.70;65.60
81202;DHT22;70675;47.650;-2.782;2023-06-14T14:35:43;27.80;65.50
81202;DHT22;70675;47.650;-2.782;2023-06-14T14:38:11;27.80;65.20
81202;DHT22;70675;47.650;-2.782;2023-06-14T14:40:37;27.80;65.00
81202;DHT22;70675;47.650;-2.782;2023-06-14T14:43:03;27.90;65.00
81202;DHT22;70675;47.650;-2.782;2023-06-14T14:45:28;28.00;65.30
81202;DHT22;70675;47.650;-2.782;2023-06-14T14:47:54;28.00;65.00
81202;DHT22;70675;47.650;-2.782;2023-06-14T14:50:20;28.10;64.70
81202;DHT22;70675;47.650;-2.782;2023-06-14T14:52:46;28.00;64.50
81202;DHT22;70675;47.650;-2.782;2023-06-14T14:55:11;28.10;64.30
81202;DHT22;70675;47.650;-2.782;2023-06-14T14:57:37;28.10;64.40
81202;DHT22;70675;47.650;-2.782;2023-06-14T15:00:05;28.20;64.70
81202;DHT22;70675;47.650;-2.782;2023-06-14T15:02:31;28.20;64.30
81202;DHT22;70675;47.650;-2.782;2023-06-14T15:04:57;28.30;64.50
81202;DHT22;70675;47.650;-2.782;2023-06-14T15:07:27;28.40;64.10
81202;DHT22;70675;47.650;-2.782;2023-06-14T15:09:53;28.40;64.00
81202;DHT22;70675;47.650;-2.782;2023-06-14T15:12:19;28.50;63.70
81202;DHT22;70675;47.650;-2.782;2023-06-14T15:14:52;28.50;63.20
81202;DHT22;70675;47.650;-2.782;2023-06-14T15:17:18;28.50;63.10
81202;DHT22;70675;47.650;-2.782;2023-06-14T15:19:45;28.50;63.00
81202;DHT22;70675;47.650;-2.782;2023-06-14T15:22:11;28.60;62.90
81202;DHT22;70675;47.650;-2.782;2023-06-14T15:24:37;28.60;63.20
81202;DHT22;70675;47.650;-2.782;2023-06-14T15:27:03;28.70;62.70